M I D A S
Marine Information and Data Acquisition System
Tripno 2217 of the Zeeleeuw from 2011-12-01 08:20:22 to 2011-12-02 14:58:56
Back to CruiseResearch ActivitiesStationsMapUnderway DataData graphs

EquipmentUnitsComment
TimeDGPSUTC
LatitudeDGPSDM.mWGS84
LongitudeDGPSDM.mWGS84
HeadingGyrodeg 
SOGDGPSknotsSpeed over ground
COGDGPSdegCourse over ground
DepthEcho soundermeters200 kHz
Missing or incorrect values are displayed as -999
Navigation data collected by the RV Zeeleeuw from 2011-12-01 08:17:04 to 2011-12-02 15:09:33
                                                                                    Next 1000 lines
Time Latitude Longitude Heading SOG COG Depth
2011-12-01 08:17:14 51°13.636 2°56.013 106.5 1.3 286 8.6
2011-12-01 08:17:19 51°13.637 2°56.009 106 1.7 293 8.6
2011-12-01 08:17:24 51°13.638 2°56.005 105.8 2.1 289 8.6
2011-12-01 08:17:29 51°13.639 2°55.999 105.9 2.4 291 5.4
2011-12-01 08:17:35 51°13.64 2°55.992 106.1 2.6 291 -999
2011-12-01 08:17:40 51°13.641 2°55.986 106.4 2.6 291 -999
2011-12-01 08:17:46 51°13.642 2°55.979 106.5 2.7 292 -999
2011-12-01 08:17:51 51°13.643 2°55.974 106.4 2.8 291 -999
2011-12-01 08:17:57 51°13.645 2°55.966 106.3 3 291 -999
2011-12-01 08:18:02 51°13.647 2°55.96 106.1 3.2 290 -999
2011-12-01 08:18:07 51°13.648 2°55.953 106 3.3 290 -999
2011-12-01 08:18:13 51°13.65 2°55.944 105.9 3.4 289 -999
2011-12-01 08:18:18 51°13.651 2°55.937 105.9 3.5 289 -999
2011-12-01 08:18:22 51°13.653 2°55.931 105.8 3.5 288 -999
2011-12-01 08:18:27 51°13.654 2°55.923 105.8 3.5 290 -999
2011-12-01 08:18:32 51°13.656 2°55.916 106.1 3.6 287 -999
2011-12-01 08:18:38 51°13.658 2°55.906 106.7 3.8 290 -999
2011-12-01 08:18:42 51°13.659 2°55.9 107.6 3.9 289 -999
2011-12-01 08:18:47 51°13.661 2°55.891 109 4 291 -999
2011-12-01 08:18:52 51°13.663 2°55.883 110 4.2 291 -999
2011-12-01 08:18:58 51°13.665 2°55.872 111.2 4.3 293 -999
2011-12-01 08:19:03 51°13.668 2°55.864 112.8 4.3 294 -999
2011-12-01 08:19:07 51°13.67 2°55.857 114.2 4.3 295 -999
2011-12-01 08:19:12 51°13.672 2°55.848 115.5 4.4 296 -999
2011-12-01 08:19:18 51°13.676 2°55.838 117.5 4.6 298 -999
2011-12-01 08:19:23 51°13.68 2°55.829 119.1 4.7 299 -999
2011-12-01 08:19:27 51°13.683 2°55.822 120.6 4.7 301 -999
2011-12-01 08:19:32 51°13.686 2°55.813 121.7 4.8 302 -999
2011-12-01 08:19:37 51°13.69 2°55.804 123.3 4.9 304 -999
2011-12-01 08:19:42 51°13.694 2°55.795 125.4 5 306 -999
2011-12-01 08:19:47 51°13.698 2°55.786 127.2 5 308 -999
2011-12-01 08:19:52 51°13.703 2°55.778 129.1 5.1 309 -999
2011-12-01 08:19:57 51°13.707 2°55.769 130.5 5.2 311 -999
2011-12-01 08:20:02 51°13.712 2°55.76 131.5 5.3 312 -999
2011-12-01 08:20:07 51°13.717 2°55.752 132.3 5.3 313 -999
2011-12-01 08:20:12 51°13.722 2°55.743 133 5.4 313 -999
2011-12-01 08:20:17 51°13.728 2°55.734 134.4 5.5 315 -999
2011-12-01 08:20:22 51°13.733 2°55.726 135.5 5.5 316 -999
2011-12-01 08:20:27 51°13.739 2°55.718 136.5 5.5 317 -999
2011-12-01 08:20:33 51°13.746 2°55.707 137.6 5.6 318 -999
2011-12-01 08:20:38 51°13.752 2°55.699 138.8 5.6 319 -999
2011-12-01 08:20:42 51°13.756 2°55.693 140.7 5.6 321 -999
2011-12-01 08:20:47 51°13.763 2°55.685 142.5 5.6 323 -999
2011-12-01 08:20:53 51°13.771 2°55.676 144.2 4.7 325 -999
2011-12-01 08:20:58 51°13.779 2°55.671 146.8 5.7 327 -999
2011-12-01 08:21:02 51°13.784 2°55.666 149.2 5.8 330 -999
2011-12-01 08:21:07 51°13.791 2°55.659 151.8 5.8 332 -999
2011-12-01 08:21:12 51°13.798 2°55.653 153.9 5.9 334 -999
2011-12-01 08:21:18 51°13.807 2°55.647 156.5 5.9 337 -999
2011-12-01 08:21:23 51°13.815 2°55.643 159.7 5.9 340 -999
2011-12-01 08:21:27 51°13.821 2°55.639 161.7 5.9 342 -999
2011-12-01 08:21:32 51°13.829 2°55.635 164.1 5.9 344 -999
2011-12-01 08:21:37 51°13.837 2°55.632 166.4 5.9 347 -999
2011-12-01 08:21:43 51°13.847 2°55.63 169.5 5.9 349 -999
2011-12-01 08:21:47 51°13.853 2°55.629 171.5 5.9 351 -999
2011-12-01 08:21:52 51°13.861 2°55.627 174 5.9 354 -999
2011-12-01 08:21:57 51°13.87 2°55.627 176.6 5.9 357 -999
2011-12-01 08:22:02 51°13.878 2°55.626 179.2 5.9 359 -999
2011-12-01 08:22:07 51°13.886 2°55.627 181.9 5.9 1 -999
2011-12-01 08:22:12 51°13.894 2°55.628 184.7 5.8 5 -999
2011-12-01 08:22:17 51°13.902 2°55.629 187.8 5.6 7 -999
2011-12-01 08:22:22 51°13.909 2°55.631 190.6 5.4 10 -999
2011-12-01 08:22:27 51°13.916 2°55.634 193.4 5.3 12 -999
2011-12-01 08:22:32 51°13.923 2°55.636 196.1 5 14 -999
2011-12-01 08:22:38 51°13.93 2°55.64 198.7 4.7 17 -999
2011-12-01 08:22:42 51°13.935 2°55.642 201.2 4.5 18 -999
2011-12-01 08:22:47 51°13.941 2°55.646 203.7 4.2 20 -999
2011-12-01 08:22:53 51°13.947 2°55.65 206 3.9 22 -999
2011-12-01 08:22:58 51°13.951 2°55.653 208.2 3.6 24 9.7
2011-12-01 08:23:02 51°13.955 2°55.656 210 3.2 26 9.6
2011-12-01 08:23:07 51°13.958 2°55.659 212.4 3 28 9.6
2011-12-01 08:23:11 51°13.961 2°55.661 214.9 2.6 31 9.5
2011-12-01 08:23:16 51°13.964 2°55.664 218.2 2.3 33 9.4
2011-12-01 08:23:21 51°13.966 2°55.667 221.7 2 34 9.6
2011-12-01 08:23:26 51°13.967 2°55.669 225.4 1.6 34 9.3
2011-12-01 08:23:31 51°13.968 2°55.671 228.8 1.2 34 4.9
2011-12-01 08:23:36 51°13.969 2°55.671 233.4 0.8 28 -999
2011-12-01 08:23:42 51°13.97 2°55.672 237.4 0.5 6 -999
2011-12-01 08:23:47 51°13.971 2°55.671 241.9 0.4 319 9.4
2011-12-01 08:23:52 51°13.971 2°55.67 246.8 0.7 292 -999
2011-12-01 08:23:57 51°13.971 2°55.668 251.2 1 280 9.4
2011-12-01 08:24:02 51°13.971 2°55.665 258.4 1.4 281 9.7
2011-12-01 08:24:07 51°13.972 2°55.661 263.6 1.7 281 9.4
2011-12-01 08:24:11 51°13.972 2°55.657 271.5 2 286 -999
2011-12-01 08:24:17 51°13.974 2°55.651 277.5 2.5 289 -999
2011-12-01 08:24:22 51°13.975 2°55.646 283 2.8 295 -999
2011-12-01 08:24:27 51°13.977 2°55.639 288.2 3.1 297 9.5
2011-12-01 08:24:32 51°13.98 2°55.633 292.3 3.5 303 9.7
2011-12-01 08:24:37 51°13.983 2°55.626 297.4 4 304 10.4
2011-12-01 08:24:41 51°13.986 2°55.62 301.3 4.5 309 10.7
2011-12-01 08:24:47 51°13.992 2°55.609 305.7 5 310 -999
2011-12-01 08:24:52 51°13.997 2°55.6 308.4 5.6 312 -999
2011-12-01 08:24:57 51°14.003 2°55.59 310 6.1 313 10.7
2011-12-01 08:25:02 51°14.009 2°55.58 311.5 6.6 315 11.2
2011-12-01 08:25:07 51°14.016 2°55.569 313.2 7 315 11
2011-12-01 08:25:11 51°14.022 2°55.56 314.3 7.3 317 10.8
2011-12-01 08:25:16 51°14.03 2°55.549 315 7.6 317 10.6
2011-12-01 08:25:21 51°14.039 2°55.538 316.3 7.9 321 10.1
2011-12-01 08:25:26 51°14.048 2°55.527 318.9 8.2 322 10.4
2011-12-01 08:25:31 51°14.057 2°55.515 320.7 8.4 323 10.3
2011-12-01 08:25:35 51°14.065 2°55.506 322.1 8.5 325 10.5
2011-12-01 08:25:40 51°14.075 2°55.496 323.8 8.7 325 10.4
2011-12-01 08:25:45 51°14.085 2°55.484 324.5 8.7 325 -999
2011-12-01 08:25:50 51°14.094 2°55.473 325 8.7 326 10.3
2011-12-01 08:25:55 51°14.105 2°55.462 325.2 8.7 326 10.2
2011-12-01 08:26:00 51°14.115 2°55.452 325.7 8.7 327 10.2
2011-12-01 08:26:05 51°14.125 2°55.441 326.7 8.6 326 -999
2011-12-01 08:26:10 51°14.135 2°55.431 326.7 8.6 327 -999
2011-12-01 08:26:15 51°14.145 2°55.42 326.4 8.6 326 -999
2011-12-01 08:26:21 51°14.156 2°55.408 326.2 8.5 327 10.1
2011-12-01 08:26:26 51°14.166 2°55.398 327.1 8.5 328 10.2
2011-12-01 08:26:31 51°14.176 2°55.388 327.6 8.5 327 10.4
2011-12-01 08:26:35 51°14.184 2°55.379 326.9 8.5 326 -999
2011-12-01 08:26:40 51°14.194 2°55.369 325.8 8.5 326 10.2
2011-12-01 08:26:46 51°14.206 2°55.356 325.9 8.5 328 10.4
2011-12-01 08:26:51 51°14.216 2°55.346 326.7 8.5 328 10.2
2011-12-01 08:26:56 51°14.226 2°55.336 327.4 8.5 328 -999
2011-12-01 08:27:02 51°14.238 2°55.324 328.2 8.6 328 -999
2011-12-01 08:27:07 51°14.248 2°55.314 328 8.6 328 -999
2011-12-01 08:27:12 51°14.258 2°55.304 328.1 8.6 329 -999
2011-12-01 08:27:17 51°14.268 2°55.294 328.7 8.7 328 -999
2011-12-01 08:27:22 51°14.278 2°55.284 328.2 8.8 328 -999
2011-12-01 08:27:27 51°14.289 2°55.274 328.1 8.9 328 -999
2011-12-01 08:27:32 51°14.3 2°55.263 328.1 9 329 9.9
2011-12-01 08:27:38 51°14.313 2°55.25 328.3 9.2 328 -999
2011-12-01 08:27:43 51°14.324 2°55.24 328.2 9.3 329 -999
2011-12-01 08:27:47 51°14.333 2°55.232 329.1 9.4 330 -999
2011-12-01 08:27:52 51°14.344 2°55.221 329.8 9.6 330 -999
2011-12-01 08:27:58 51°14.358 2°55.208 329.6 9.8 329 -999
2011-12-01 08:28:03 51°14.37 2°55.197 329.7 9.9 330 -999
2011-12-01 08:28:07 51°14.38 2°55.188 329.8 10 329 -999
2011-12-01 08:28:12 51°14.391 2°55.176 328.6 10.1 328 10.2
2011-12-01 08:28:17 51°14.404 2°55.164 328 10.2 329 10.3
2011-12-01 08:28:22 51°14.416 2°55.152 328.3 10.4 328 10.3
2011-12-01 08:28:27 51°14.428 2°55.14 328.3 10.5 328 10.3
2011-12-01 08:28:32 51°14.441 2°55.127 328.2 10.5 328 10.3
2011-12-01 08:28:37 51°14.453 2°55.115 328.5 10.6 327 10.2
2011-12-01 08:28:42 51°14.466 2°55.101 327.6 10.7 326 10.6
2011-12-01 08:28:47 51°14.478 2°55.089 326.7 10.9 327 10.9
2011-12-01 08:28:51 51°14.489 2°55.078 326.7 11 327 11.1
2011-12-01 08:28:56 51°14.502 2°55.065 327.2 11.2 328 11.2
2011-12-01 08:29:01 51°14.515 2°55.051 326.9 11.3 327 11.4
2011-12-01 08:29:06 51°14.529 2°55.037 326.9 11.6 328 11.3
2011-12-01 08:29:11 51°14.542 2°55.023 327 11.7 326 11.7
2011-12-01 08:29:15 51°14.553 2°55.012 326.4 11.8 327 12
2011-12-01 08:29:20 51°14.567 2°54.998 327 11.8 329 11.7
2011-12-01 08:29:25 51°14.581 2°54.984 328.2 12 328 11.6
2011-12-01 08:29:30 51°14.595 2°54.97 328.5 12.1 328 11.6
2011-12-01 08:29:35 51°14.61 2°54.956 328.7 12.1 329 11.2
2011-12-01 08:29:39 51°14.621 2°54.944 328.7 12.2 327 11.4
2011-12-01 08:29:44 51°14.635 2°54.93 328.2 12.2 327 11.2
2011-12-01 08:29:49 51°14.65 2°54.915 328.2 12.2 328 11.3
2011-12-01 08:29:54 51°14.664 2°54.901 328.9 12.3 327 11.4
2011-12-01 08:29:59 51°14.679 2°54.886 328.8 12.4 328 11.4
2011-12-01 08:30:04 51°14.693 2°54.871 328 12.3 327 10.9
2011-12-01 08:30:09 51°14.708 2°54.857 328.6 12.3 329 11.1
2011-12-01 08:30:15 51°14.725 2°54.84 329.2 12.4 327 11
2011-12-01 08:30:19 51°14.737 2°54.828 328.2 12.4 328 11.3
2011-12-01 08:30:24 51°14.751 2°54.813 328.1 12.5 328 11.2
2011-12-01 08:30:29 51°14.766 2°54.798 327.8 12.4 327 11
2011-12-01 08:30:34 51°14.78 2°54.783 326.8 12.4 326 11.4
2011-12-01 08:30:39 51°14.795 2°54.768 326.5 12.5 327 11.5
2011-12-01 08:30:44 51°14.809 2°54.751 325 12.5 324 11.2
2011-12-01 08:30:49 51°14.823 2°54.736 324.3 12.5 325 11.1
2011-12-01 08:30:54 51°14.837 2°54.72 324.5 12.5 325 11.5
2011-12-01 08:30:59 51°14.851 2°54.704 324.1 12.4 325 10.9
2011-12-01 08:31:04 51°14.865 2°54.687 323.7 12.4 324 11.1
2011-12-01 08:31:09 51°14.879 2°54.672 323.4 12.5 323 11.5
2011-12-01 08:31:14 51°14.893 2°54.655 322.1 12.5 320 12
2011-12-01 08:31:19 51°14.906 2°54.637 319.6 12.5 320 11.8
2011-12-01 08:31:24 51°14.919 2°54.62 318.8 12.5 321 11.4
2011-12-01 08:31:29 51°14.933 2°54.602 319.5 12.5 321 11.5
2011-12-01 08:31:34 51°14.946 2°54.585 320 12.5 320 11.3
2011-12-01 08:31:39 51°14.959 2°54.567 319.1 12.4 320 10.9
2011-12-01 08:31:44 51°14.972 2°54.549 318.8 12.3 320 10.8
2011-12-01 08:31:49 51°14.985 2°54.532 318.8 12.3 320 10.9
2011-12-01 08:31:54 51°14.999 2°54.514 319.1 12.4 321 11
2011-12-01 08:31:59 51°15.012 2°54.497 319.4 12.3 322 10.9
2011-12-01 08:32:04 51°15.026 2°54.48 320.2 12.4 323 11.1
2011-12-01 08:32:09 51°15.039 2°54.464 321.7 12.4 324 10.9
2011-12-01 08:32:14 51°15.054 2°54.448 322.7 12.4 324 11
2011-12-01 08:32:19 51°15.068 2°54.433 323.3 12.5 325 11
2011-12-01 08:32:24 51°15.082 2°54.417 323.7 12.3 325 10.3
2011-12-01 08:32:29 51°15.096 2°54.403 324.1 12.3 326 10.6
2011-12-01 08:32:34 51°15.11 2°54.387 324.3 12.4 324 10.8
2011-12-01 08:32:39 51°15.124 2°54.371 323.2 12.3 324 10.7
2011-12-01 08:32:44 51°15.137 2°54.354 322.3 12.4 322 10.7
2011-12-01 08:32:49 51°15.151 2°54.337 321.1 12.3 323 10.5
2011-12-01 08:32:54 51°15.165 2°54.321 321.1 12.3 323 10.6
2011-12-01 08:32:59 51°15.179 2°54.305 321.7 12.4 323 11.1
2011-12-01 08:33:04 51°15.193 2°54.289 322.4 12.4 324 10.8
2011-12-01 08:33:09 51°15.206 2°54.272 322.4 12.4 324 10.8
2011-12-01 08:33:14 51°15.221 2°54.257 323.1 12.5 325 10.7
2011-12-01 08:33:19 51°15.235 2°54.241 324.1 12.4 327 10.8
2011-12-01 08:33:24 51°15.249 2°54.226 325.2 12.5 327 11
2011-12-01 08:33:29 51°15.264 2°54.211 326.5 12.5 327 10.8
2011-12-01 08:33:34 51°15.278 2°54.196 326.6 12.4 326 10.6
2011-12-01 08:33:39 51°15.293 2°54.181 326 12.4 326 10.2
2011-12-01 08:33:44 51°15.307 2°54.165 324.9 12.4 324 10.3
2011-12-01 08:33:49 51°15.321 2°54.149 324.1 12.4 324 10.4
2011-12-01 08:33:54 51°15.334 2°54.132 323.5 12.4 324 10.3
2011-12-01 08:33:59 51°15.348 2°54.116 323.6 12.4 324 10.1
2011-12-01 08:34:04 51°15.362 2°54.099 323.4 12.4 323 9.8
2011-12-01 08:34:09 51°15.375 2°54.083 323.1 12.4 323 10.1
2011-12-01 08:34:14 51°15.389 2°54.066 323.4 12.4 322 10.3
2011-12-01 08:34:19 51°15.403 2°54.049 322.4 12.4 323 10.2
2011-12-01 08:34:24 51°15.417 2°54.033 322.3 12.4 322 10.4
2011-12-01 08:34:29 51°15.431 2°54.016 322.6 12.5 323 10.7
2011-12-01 08:34:34 51°15.444 2°53.999 322.5 12.5 323 10.6
2011-12-01 08:34:39 51°15.458 2°53.983 322.7 12.4 322 10.8
2011-12-01 08:34:44 51°15.472 2°53.966 322.7 12.4 323 10.7
2011-12-01 08:34:49 51°15.485 2°53.949 322.4 12.4 322 10.4
2011-12-01 08:34:54 51°15.499 2°53.933 322 12.4 323 10.9
2011-12-01 08:34:59 51°15.513 2°53.916 322.2 12.5 322 10.8
2011-12-01 08:35:04 51°15.527 2°53.899 322.1 12.4 322 10.8
2011-12-01 08:35:09 51°15.54 2°53.882 321.8 12.4 321 10.8
2011-12-01 08:35:14 51°15.553 2°53.865 321.6 12.4 320 10.9
2011-12-01 08:35:19 51°15.566 2°53.847 320.6 12.5 320 11.1
2011-12-01 08:35:24 51°15.58 2°53.829 320.2 12.5 320 10.8
2011-12-01 08:35:29 51°15.593 2°53.811 320 12.5 320 10.9
2011-12-01 08:35:34 51°15.606 2°53.793 320.1 12.5 319 11
2011-12-01 08:35:39 51°15.619 2°53.775 318.9 12.5 318 11.3
2011-12-01 08:35:44 51°15.632 2°53.757 318.4 12.5 319 11.2
2011-12-01 08:35:49 51°15.645 2°53.738 318 12.3 317 10.8
2011-12-01 08:35:54 51°15.657 2°53.72 317.3 12.3 319 11
2011-12-01 08:35:59 51°15.67 2°53.702 317.3 12.3 319 11.6
2011-12-01 08:36:03 51°15.681 2°53.688 318.8 12.3 321 11.2
2011-12-01 08:36:09 51°15.697 2°53.668 320.5 12.3 322 11.3
2011-12-01 08:36:14 51°15.711 2°53.651 321.5 12.4 322 11.4
2011-12-01 08:36:19 51°15.724 2°53.635 322.2 12.3 323 11.3
2011-12-01 08:36:24 51°15.738 2°53.619 322.6 12.3 325 11.6
2011-12-01 08:36:29 51°15.753 2°53.604 324.5 12.4 328 11.5
2011-12-01 08:36:34 51°15.768 2°53.59 327.4 12.4 330 11.7
2011-12-01 08:36:39 51°15.782 2°53.577 329.3 12.4 330 11.7
2011-12-01 08:36:44 51°15.798 2°53.564 331 12.4 333 11.2
2011-12-01 08:36:49 51°15.813 2°53.552 332.5 12.3 333 11.1
2011-12-01 08:36:54 51°15.829 2°53.54 333.9 12.4 335 11.6
2011-12-01 08:36:59 51°15.844 2°53.529 334.7 12.5 335 11.4
2011-12-01 08:37:04 51°15.86 2°53.518 336 12.5 338 11.4
2011-12-01 08:37:09 51°15.876 2°53.508 337.8 12.3 338 10.7
2011-12-01 08:37:14 51°15.892 2°53.498 338.5 12.4 339 10.9
2011-12-01 08:37:19 51°15.908 2°53.488 339.4 12.4 339 11.2
2011-12-01 08:37:24 51°15.925 2°53.478 340 12.5 339 11.3
2011-12-01 08:37:29 51°15.941 2°53.469 339.7 12.4 340 10.9
2011-12-01 08:37:34 51°15.957 2°53.459 339.6 12.3 339 10.8
2011-12-01 08:37:39 51°15.973 2°53.45 339.4 12.4 340 10.9
2011-12-01 08:37:44 51°15.989 2°53.44 339.8 12.4 338 11
2011-12-01 08:37:49 51°16.005 2°53.429 338.7 12.4 338 11.3
2011-12-01 08:37:54 51°16.021 2°53.419 338 12.4 338 11.4
2011-12-01 08:37:59 51°16.036 2°53.408 337.9 12.4 336 11.3
2011-12-01 08:38:04 51°16.052 2°53.397 337.2 12.5 337 11.3
2011-12-01 08:38:09 51°16.068 2°53.386 336.7 12.5 335 11.4
2011-12-01 08:38:14 51°16.084 2°53.374 335.5 12.5 335 11.3
2011-12-01 08:38:19 51°16.099 2°53.362 334.7 12.4 334 11.2
2011-12-01 08:38:23 51°16.112 2°53.352 334.2 12.5 334 11.5
2011-12-01 08:38:29 51°16.131 2°53.339 333.7 12.4 335 11.2
2011-12-01 08:38:34 51°16.146 2°53.327 334.1 12.4 335 11.5
2011-12-01 08:38:39 51°16.162 2°53.315 334.6 12.6 335 11.7
2011-12-01 08:38:44 51°16.178 2°53.304 335.3 12.5 336 11.5
2011-12-01 08:38:49 51°16.194 2°53.293 336.1 12.4 337 11.5
2011-12-01 08:38:54 51°16.21 2°53.283 337.1 12.5 338 11.7
2011-12-01 08:38:59 51°16.226 2°53.273 338.3 12.5 339 12
2011-12-01 08:39:04 51°16.242 2°53.262 338.4 12.4 339 11.5
2011-12-01 08:39:09 51°16.258 2°53.252 338.5 12.5 338 11.9
2011-12-01 08:39:14 51°16.274 2°53.241 338 12.5 338 11.7
2011-12-01 08:39:19 51°16.289 2°53.231 337.8 12.4 338 11.8
2011-12-01 08:39:24 51°16.305 2°53.221 338.2 12.5 338 11.9
2011-12-01 08:39:29 51°16.321 2°53.21 338.1 12.5 337 11.6
2011-12-01 08:39:34 51°16.337 2°53.199 337.9 12.5 336 11.6
2011-12-01 08:39:39 51°16.353 2°53.188 336.7 12.5 337 11.8
2011-12-01 08:39:44 51°16.369 2°53.177 336.6 12.5 336 11.6
2011-12-01 08:39:49 51°16.385 2°53.165 335.7 12.5 335 11.5
2011-12-01 08:39:54 51°16.4 2°53.153 335 12.4 334 11.2
2011-12-01 08:39:59 51°16.416 2°53.142 334.6 12.4 335 11.2
2011-12-01 08:40:04 51°16.432 2°53.13 335 12.5 335 12
2011-12-01 08:40:09 51°16.448 2°53.119 335.3 12.5 335 11.9
2011-12-01 08:40:14 51°16.463 2°53.107 334.9 12.5 334 11.6
2011-12-01 08:40:19 51°16.479 2°53.095 334.8 12.5 335 11.8
2011-12-01 08:40:24 51°16.495 2°53.084 334.4 12.5 335 11.6
2011-12-01 08:40:29 51°16.511 2°53.072 334.6 12.5 336 11.7
2011-12-01 08:40:34 51°16.526 2°53.06 335.3 12.6 335 11.7
2011-12-01 08:40:39 51°16.542 2°53.049 335.5 12.6 335 11.6
2011-12-01 08:40:44 51°16.558 2°53.036 334.6 12.6 333 11.6
2011-12-01 08:40:49 51°16.573 2°53.023 333.2 12.5 334 11.3
2011-12-01 08:40:54 51°16.588 2°53.01 332.9 12.5 333 11.4
2011-12-01 08:40:59 51°16.604 2°52.998 332.4 12.5 333 11.4
2011-12-01 08:41:04 51°16.619 2°52.985 332.5 12.5 334 11.3
2011-12-01 08:41:09 51°16.635 2°52.974 333.4 12.5 334 11.1
2011-12-01 08:41:14 51°16.65 2°52.962 334 12.5 335 10.7
2011-12-01 08:41:19 51°16.666 2°52.951 334.5 12.5 336 11
2011-12-01 08:41:24 51°16.682 2°52.94 335.8 12.4 336 10.6
2011-12-01 08:41:29 51°16.698 2°52.93 336.8 12.5 338 10.9
2011-12-01 08:41:35 51°16.717 2°52.916 337.1 12.5 337 10.9
2011-12-01 08:41:39 51°16.73 2°52.908 337.3 12.5 338 10.5
2011-12-01 08:41:44 51°16.746 2°52.898 338.2 12.5 338 10.5
2011-12-01 08:41:49 51°16.762 2°52.888 338.3 12.6 340 10.3
2011-12-01 08:41:54 51°16.778 2°52.877 339 12.5 338 10
2011-12-01 08:41:59 51°16.794 2°52.867 338.2 12.4 338 9.1
2011-12-01 08:42:04 51°16.809 2°52.856 338.2 12.4 337 9.2
2011-12-01 08:42:09 51°16.825 2°52.846 337.5 12.4 338 9.2
2011-12-01 08:42:14 51°16.841 2°52.835 336.9 12.4 336 8.9
2011-12-01 08:42:19 51°16.857 2°52.824 336.9 12.4 338 9.2
2011-12-01 08:42:24 51°16.873 2°52.814 336.9 12.4 338 9.1
2011-12-01 08:42:29 51°16.889 2°52.804 337.5 12.4 338 9
2011-12-01 08:42:34 51°16.905 2°52.794 337.7 12.5 338 9.2
2011-12-01 08:42:39 51°16.92 2°52.783 337.8 12.5 338 9.6
2011-12-01 08:42:43 51°16.933 2°52.775 337.4 12.4 337 9
2011-12-01 08:42:49 51°16.952 2°52.762 336.9 12.4 335 9.1
2011-12-01 08:42:54 51°16.968 2°52.75 335.4 12.4 334 8.7
2011-12-01 08:42:59 51°16.983 2°52.738 334.6 12.3 335 8.7
2011-12-01 08:43:04 51°16.999 2°52.727 334.8 12.4 334 9.3
2011-12-01 08:43:09 51°17.015 2°52.715 334.9 12.6 337 9.5
2011-12-01 08:43:14 51°17.031 2°52.704 336.1 12.6 336 9.8
2011-12-01 08:43:19 51°17.047 2°52.693 336.2 12.6 338 10.1
2011-12-01 08:43:24 51°17.063 2°52.683 337.1 12.5 338 9.2
2011-12-01 08:43:29 51°17.079 2°52.673 338.3 12.5 339 9.4
2011-12-01 08:43:35 51°17.099 2°52.661 339.1 12.5 339 9.5
2011-12-01 08:43:39 51°17.112 2°52.654 339.6 12.5 340 9.2
2011-12-01 08:43:44 51°17.128 2°52.645 340.1 12.5 341 9.2
2011-12-01 08:43:49 51°17.145 2°52.636 341.1 12.5 342 9.5
2011-12-01 08:43:54 51°17.161 2°52.628 342.3 12.5 342 9.3
2011-12-01 08:43:59 51°17.178 2°52.62 342.8 12.5 343 9.4
2011-12-01 08:44:04 51°17.194 2°52.611 343.4 12.5 342 9.1
2011-12-01 08:44:09 51°17.211 2°52.603 343.2 12.5 343 9.2
2011-12-01 08:44:14 51°17.228 2°52.595 343.3 12.6 342 9.5
2011-12-01 08:44:19 51°17.245 2°52.587 343.5 12.6 343 9.5
2011-12-01 08:44:24 51°17.261 2°52.579 343.5 12.5 343 9.1
2011-12-01 08:44:29 51°17.278 2°52.571 343.5 12.6 344 9.8
2011-12-01 08:44:34 51°17.294 2°52.563 343.4 12.6 343 10
2011-12-01 08:44:39 51°17.311 2°52.554 342.2 12.5 341 9.7
2011-12-01 08:44:44 51°17.327 2°52.545 341.3 12.5 340 10.1
2011-12-01 08:44:49 51°17.343 2°52.534 339.3 12.3 338 9.3
2011-12-01 08:44:54 51°17.359 2°52.524 338.6 12.4 337 9.9
2011-12-01 08:44:59 51°17.375 2°52.514 337.7 12.4 337 10.2
2011-12-01 08:45:04 51°17.391 2°52.503 336.9 12.5 337 9.8
2011-12-01 08:45:09 51°17.406 2°52.491 336.5 12.5 336 9.8
2011-12-01 08:45:14 51°17.422 2°52.482 336.9 12.4 340 9.8
2011-12-01 08:45:19 51°17.439 2°52.473 338.3 12.4 341 10.2
2011-12-01 08:45:24 51°17.456 2°52.464 340.2 12.5 342 10.3
2011-12-01 08:45:29 51°17.472 2°52.457 342.2 12.4 344 10
2011-12-01 08:45:34 51°17.489 2°52.45 343.9 12.5 345 10
2011-12-01 08:45:39 51°17.506 2°52.444 345.6 12.6 348 10.2
2011-12-01 08:45:44 51°17.523 2°52.438 347.5 12.4 349 9.8
2011-12-01 08:45:49 51°17.539 2°52.435 348.7 12.4 353 9.9
2011-12-01 08:45:54 51°17.557 2°52.43 351.7 12.5 351 10
2011-12-01 08:45:59 51°17.574 2°52.427 352.3 12.5 352 10
2011-12-01 08:46:04 51°17.591 2°52.423 352.5 12.5 353 9.8
2011-12-01 08:46:09 51°17.608 2°52.42 353.7 12.5 353 10
2011-12-01 08:46:14 51°17.625 2°52.417 352.4 12.5 354 10.2
2011-12-01 08:46:19 51°17.643 2°52.415 353.6 12.6 356 10.1
2011-12-01 08:46:24 51°17.66 2°52.414 357 12.5 358 10
2011-12-01 08:46:29 51°17.677 2°52.414 358 12.5 359 10
2011-12-01 08:46:34 51°17.695 2°52.414 359.5 12.4 1 9.9
2011-12-01 08:46:39 51°17.712 2°52.414 1.7 12.5 -999 9.7
2011-12-01 08:46:44 51°17.729 2°52.416 2.7 12.5 3 9.9
2011-12-01 08:46:49 51°17.747 2°52.417 3.5 12.5 2 9.6
2011-12-01 08:46:54 51°17.764 2°52.419 4.2 12.6 5 9.6
2011-12-01 08:46:59 51°17.782 2°52.42 4.4 12.6 3 10
2011-12-01 08:47:04 51°17.799 2°52.423 4.2 12.5 6 9.8
2011-12-01 08:47:09 51°17.816 2°52.424 5 12.6 2 9.7
2011-12-01 08:47:14 51°17.834 2°52.426 4.9 12.6 4 9.7
2011-12-01 08:47:19 51°17.851 2°52.428 4.6 12.5 4 10
2011-12-01 08:47:23 51°17.865 2°52.43 5.1 12.6 5 10
2011-12-01 08:47:29 51°17.886 2°52.431 4.6 12.5 4 9.9
2011-12-01 08:47:34 51°17.903 2°52.434 4.7 12.5 4 10
2011-12-01 08:47:39 51°17.921 2°52.437 5.8 12.5 7 10.1
2011-12-01 08:47:44 51°17.938 2°52.442 7.7 12.7 11 10.4
2011-12-01 08:47:49 51°17.955 2°52.446 9.6 12.6 7 10.1
2011-12-01 08:47:54 51°17.972 2°52.452 9.6 12.6 15 10
2011-12-01 08:47:59 51°17.989 2°52.458 13.5 12.8 11 9.8
2011-12-01 08:48:04 51°18.006 2°52.464 13.5 12.5 13 9.9
2011-12-01 08:48:09 51°18.022 2°52.473 15.6 12.2 18 9.6
2011-12-01 08:48:14 51°18.039 2°52.483 19.7 12.8 19 10.3
2011-12-01 08:48:19 51°18.056 2°52.49 19.6 12.8 15 10
2011-12-01 08:48:24 51°18.072 2°52.5 19.3 12.3 22 10
2011-12-01 08:48:29 51°18.088 2°52.508 20.4 12.4 18 10.1
2011-12-01 08:48:34 51°18.105 2°52.52 21.8 12.8 21 10.3
2011-12-01 08:48:39 51°18.121 2°52.528 21.4 12.6 18 10.6
2011-12-01 08:48:44 51°18.137 2°52.539 21.8 12.3 24 10.3
2011-12-01 08:48:49 51°18.153 2°52.549 24.6 12.7 21 10.5
2011-12-01 08:48:54 51°18.17 2°52.559 22.9 12.6 20 10.6
2011-12-01 08:48:59 51°18.186 2°52.568 21.4 12.3 21 10
2011-12-01 08:49:04 51°18.201 2°52.579 23.3 12.3 21 10.2
2011-12-01 08:49:09 51°18.218 2°52.589 22.4 12.6 21 10.5
2011-12-01 08:49:14 51°18.234 2°52.598 21.7 12.6 20 10.8
2011-12-01 08:49:19 51°18.25 2°52.61 21.7 12.5 25 10.8
2011-12-01 08:49:24 51°18.266 2°52.622 25.6 12.4 27 10.4
2011-12-01 08:49:29 51°18.28 2°52.636 28.4 12.2 32 10.4
2011-12-01 08:49:34 51°18.293 2°52.654 35.1 12.4 39 10.8
2011-12-01 08:49:39 51°18.307 2°52.67 38.7 12.6 37 10.5
2011-12-01 08:49:43 51°18.318 2°52.685 39.5 12.4 41 10.7
2011-12-01 08:49:49 51°18.332 2°52.707 42.9 12.1 45 10.7
2011-12-01 08:49:54 51°18.344 2°52.725 45.3 12.1 44 10.4
2011-12-01 08:49:59 51°18.356 2°52.746 47 12.4 47 10.6
2011-12-01 08:50:04 51°18.368 2°52.764 47.1 12.4 44 10.7
2011-12-01 08:50:09 51°18.378 2°52.786 49.6 12.3 53 10.6
2011-12-01 08:50:14 51°18.391 2°52.805 50.6 12.4 45 10.7
2011-12-01 08:50:19 51°18.402 2°52.827 49.5 12.3 51 10.5
2011-12-01 08:50:24 51°18.412 2°52.848 51.7 12.4 50 10.6
2011-12-01 08:50:29 51°18.423 2°52.868 51.1 12.3 50 10.9
2011-12-01 08:50:35 51°18.436 2°52.894 53.1 12.4 51 11
2011-12-01 08:50:39 51°18.445 2°52.911 53.4 12.4 51 10.7
2011-12-01 08:50:44 51°18.455 2°52.934 53.7 12.5 53 10.9
2011-12-01 08:50:49 51°18.466 2°52.954 53.8 12.3 49 10.8
2011-12-01 08:50:54 51°18.476 2°52.976 52.4 12.3 54 10.9
2011-12-01 08:50:59 51°18.488 2°52.997 53.6 12.4 49 10.9
2011-12-01 08:51:04 51°18.498 2°53.019 52.8 12.4 55 10.7
2011-12-01 08:51:09 51°18.508 2°53.041 55.5 12.7 52 11.2
2011-12-01 08:51:14 51°18.518 2°53.064 54.9 12.2 59 10.8
2011-12-01 08:51:19 51°18.528 2°53.087 58.3 12.5 54 10.6
2011-12-01 08:51:24 51°18.538 2°53.109 56.9 12.5 53 11.2
2011-12-01 08:51:29 51°18.548 2°53.13 54.8 12 56 10.5
2011-12-01 08:51:34 51°18.557 2°53.153 58 12.5 53 11.1
2011-12-01 08:51:39 51°18.568 2°53.174 55.1 12.4 52 10.7
2011-12-01 08:51:44 51°18.577 2°53.198 56 12.6 56 11
2011-12-01 08:51:49 51°18.589 2°53.219 55.2 12.6 49 11
2011-12-01 08:51:54 51°18.598 2°53.242 54.9 12.2 58 10.8
2011-12-01 08:51:59 51°18.609 2°53.263 56.7 12.4 52 11.1
2011-12-01 08:52:04 51°18.618 2°53.286 54.9 12.2 55 10.6
2011-12-01 08:52:09 51°18.628 2°53.309 57.2 12.6 56 11
2011-12-01 08:52:14 51°18.639 2°53.331 57.2 12.5 52 11
2011-12-01 08:52:19 51°18.649 2°53.353 55.4 12.2 55 10.8
2011-12-01 08:52:24 51°18.659 2°53.375 56.1 12.3 54 11
2011-12-01 08:52:29 51°18.669 2°53.397 55.5 12.3 55 10.9
2011-12-01 08:52:35 51°18.681 2°53.423 55.9 12.3 54 10.9
2011-12-01 08:52:39 51°18.688 2°53.442 56.6 12.5 56 11.1
2011-12-01 08:52:44 51°18.699 2°53.463 56.2 12.3 50 11
2011-12-01 08:52:49 51°18.708 2°53.487 55.4 12.4 60 10.9
2011-12-01 08:52:54 51°18.72 2°53.506 57.2 12.2 46 11
2011-12-01 08:52:59 51°18.728 2°53.529 52.3 12.2 61 10.7
2011-12-01 08:53:04 51°18.739 2°53.552 57.6 12.6 55 11.3
2011-12-01 08:53:09 51°18.748 2°53.575 56 12.1 60 10.8
2011-12-01 08:53:14 51°18.756 2°53.599 62 12.4 61 11.2
2011-12-01 08:53:19 51°18.765 2°53.621 61.6 12 57 10.9
2011-12-01 08:53:24 51°18.772 2°53.645 61.1 11.7 65 11
2011-12-01 08:53:29 51°18.78 2°53.669 65.2 12.5 64 11
2011-12-01 08:53:34 51°18.787 2°53.694 65.3 12.3 61 11.3
2011-12-01 08:53:39 51°18.794 2°53.717 64.4 11.6 69 11
2011-12-01 08:53:44 51°18.799 2°53.742 70.5 11.9 71 11.2
2011-12-01 08:53:49 51°18.807 2°53.766 69.7 12.1 65 11
2011-12-01 08:53:54 51°18.813 2°53.791 68.2 11.7 68 11
2011-12-01 08:53:59 51°18.819 2°53.816 69.8 12 70 10.8
2011-12-01 08:54:03 51°18.823 2°53.837 71.9 12.4 70 11.2
2011-12-01 08:54:09 51°18.832 2°53.865 70.1 11.9 66 10.9
2011-12-01 08:54:14 51°18.837 2°53.89 70.3 11.7 72 11.1
2011-12-01 08:54:19 51°18.844 2°53.915 71 12.1 65 11
2011-12-01 08:54:24 51°18.849 2°53.94 69.3 12.3 71 11.2
2011-12-01 08:54:29 51°18.857 2°53.965 69.4 12.3 65 10.9
2011-12-01 08:54:34 51°18.862 2°53.99 69.8 12.1 70 11.2
2011-12-01 08:54:39 51°18.869 2°54.015 70.5 12 67 11
2011-12-01 08:54:44 51°18.874 2°54.04 71.3 12.1 71 10.9
2011-12-01 08:54:49 51°18.881 2°54.065 71.1 12.4 67 11
2011-12-01 08:54:54 51°18.886 2°54.091 70.5 12.1 72 11.3
2011-12-01 08:54:59 51°18.892 2°54.116 72.6 12.1 70 11
2011-12-01 08:55:04 51°18.897 2°54.142 72.9 12.4 72 11
2011-12-01 08:55:09 51°18.904 2°54.167 71.9 12.5 68 11.1
2011-12-01 08:55:14 51°18.909 2°54.193 71.1 11.9 73 11
2011-12-01 08:55:19 51°18.915 2°54.218 73.1 12 69 10.9
2011-12-01 08:55:24 51°18.921 2°54.244 72 12.5 70 11
2011-12-01 08:55:29 51°18.927 2°54.27 71.4 12.6 69 11
2011-12-01 08:55:34 51°18.933 2°54.295 71.6 12.1 70 11
2011-12-01 08:55:39 51°18.939 2°54.321 71.4 12.1 70 11
2011-12-01 08:55:44 51°18.944 2°54.346 72 12.1 71 11
2011-12-01 08:55:49 51°18.95 2°54.372 72.9 12.3 69 10.9
2011-12-01 08:55:54 51°18.957 2°54.397 71.2 12.6 68 11
2011-12-01 08:55:59 51°18.962 2°54.423 70.5 12.3 70 11.1
2011-12-01 08:56:04 51°18.968 2°54.448 71.6 12.1 70 11
2011-12-01 08:56:09 51°18.974 2°54.473 72.6 12.1 68 11
2011-12-01 08:56:14 51°18.98 2°54.498 70.7 12.2 69 11
2011-12-01 08:56:19 51°18.986 2°54.524 71.2 12.3 69 10.9
2011-12-01 08:56:24 51°18.993 2°54.549 70.8 12.4 68 11.2
2011-12-01 08:56:29 51°19 2°54.573 69.1 12 65 11
2011-12-01 08:56:34 51°19.006 2°54.598 68.2 12.3 66 10.8
2011-12-01 08:56:39 51°19.014 2°54.622 66.9 12.4 62 11
2011-12-01 08:56:44 51°19.021 2°54.647 65.5 12.3 68 10.9
2011-12-01 08:56:49 51°19.028 2°54.672 68.6 12.5 65 10.9
2011-12-01 08:56:54 51°19.035 2°54.697 67.6 12.3 64 11.1
2011-12-01 08:56:59 51°19.042 2°54.722 66.6 12.1 66 10.9
2011-12-01 08:57:04 51°19.049 2°54.746 68 12.2 66 11
2011-12-01 08:57:09 51°19.057 2°54.771 66.9 12.4 64 11
2011-12-01 08:57:14 51°19.064 2°54.795 66.1 12.2 63 11
2011-12-01 08:57:19 51°19.071 2°54.82 66.1 12.2 65 10.9
2011-12-01 08:57:24 51°19.078 2°54.845 67.6 12.4 67 11
2011-12-01 08:57:29 51°19.085 2°54.87 68.8 12.3 67 10.9
2011-12-01 08:57:34 51°19.092 2°54.895 69 12.1 66 10.9
2011-12-01 08:57:39 51°19.099 2°54.92 68.6 12.3 66 10.8
2011-12-01 08:57:44 51°19.105 2°54.945 69.1 12.5 68 11
2011-12-01 08:57:49 51°19.112 2°54.97 69.5 12.3 67 10.9
2011-12-01 08:57:54 51°19.118 2°54.996 70.5 12.3 68 10.9
2011-12-01 08:57:59 51°19.125 2°55.021 69.5 12.7 66 11
2011-12-01 08:58:04 51°19.133 2°55.045 66.6 12.1 63 11
2011-12-01 08:58:09 51°19.138 2°55.07 67.6 12 71 10.8
2011-12-01 08:58:14 51°19.146 2°55.095 70.4 12.6 63 11
2011-12-01 08:58:19 51°19.152 2°55.12 66.9 12.2 68 11
2011-12-01 08:58:24 51°19.159 2°55.144 68.3 12 66 10.8
2011-12-01 08:58:29 51°19.165 2°55.17 69.2 12.5 69 11
2011-12-01 08:58:34 51°19.172 2°55.195 68.9 12.3 66 10.9
2011-12-01 08:58:39 51°19.178 2°55.22 69.1 11.9 69 11
2011-12-01 08:58:44 51°19.185 2°55.244 69.8 12 67 10.7
2011-12-01 08:58:49 51°19.191 2°55.27 70.4 12.5 69 11.1
2011-12-01 08:58:54 51°19.199 2°55.294 68.4 12 64 11
2011-12-01 08:58:59 51°19.204 2°55.319 68.3 11.8 72 10.8
2011-12-01 08:59:04 51°19.211 2°55.343 70.1 12.2 65 10.8
2011-12-01 08:59:09 51°19.217 2°55.369 69.6 12.4 69 11
2011-12-01 08:59:14 51°19.223 2°55.393 69.4 12 68 10.9
2011-12-01 08:59:19 51°19.23 2°55.418 70.5 11.9 68 10.7
2011-12-01 08:59:24 51°19.236 2°55.443 70.1 12.4 69 11
2011-12-01 08:59:29 51°19.243 2°55.468 69.5 12.3 67 10.9
2011-12-01 08:59:34 51°19.249 2°55.493 69.6 12.2 68 10.9
2011-12-01 08:59:39 51°19.257 2°55.517 69.1 12.2 63 10.7
2011-12-01 08:59:44 51°19.263 2°55.542 67.6 12.3 68 10.9
2011-12-01 08:59:49 51°19.271 2°55.567 67.2 12.4 63 11
2011-12-01 08:59:54 51°19.277 2°55.592 66.3 12.1 68 10.8
2011-12-01 08:59:59 51°19.284 2°55.616 68.3 12.3 65 10.7
2011-12-01 09:00:04 51°19.292 2°55.641 66.2 12.4 63 10.9
2011-12-01 09:00:09 51°19.299 2°55.666 65.7 12.3 66 10.8
2011-12-01 09:00:14 51°19.306 2°55.69 67.6 12.3 65 10.9
2011-12-01 09:00:19 51°19.314 2°55.715 67.1 12.4 63 10.6
2011-12-01 09:00:24 51°19.322 2°55.739 65.2 12.2 63 11
2011-12-01 09:00:29 51°19.329 2°55.762 64.1 11.8 63 10.7
2011-12-01 09:00:34 51°19.336 2°55.787 67.3 12.2 66 10.7
2011-12-01 09:00:39 51°19.344 2°55.811 67.1 12.3 62 10.8
2011-12-01 09:00:44 51°19.35 2°55.836 65.4 12.1 67 10.8
2011-12-01 09:00:49 51°19.356 2°55.861 69 11.9 67 10.8
2011-12-01 09:00:54 51°19.363 2°55.886 69 12.3 67 10.6
2011-12-01 09:00:59 51°19.37 2°55.911 69.5 12.5 68 10.9
2011-12-01 09:01:04 51°19.377 2°55.935 67.9 11.9 65 10.7
2011-12-01 09:01:09 51°19.382 2°55.96 69.8 12 72 10.5
2011-12-01 09:01:14 51°19.389 2°55.986 71.3 12.7 65 10.9
2011-12-01 09:01:19 51°19.397 2°56.011 66.6 12.4 65 10.6
2011-12-01 09:01:24 51°19.403 2°56.035 68.6 11.9 68 10.7
2011-12-01 09:01:29 51°19.41 2°56.06 68.7 12.2 64 10.5
2011-12-01 09:01:35 51°19.419 2°56.089 67.7 12.3 63 10.8
2011-12-01 09:01:39 51°19.426 2°56.108 64.7 12.1 61 10.7
2011-12-01 09:01:44 51°19.432 2°56.133 66.2 11.9 68 10.5
2011-12-01 09:01:49 51°19.44 2°56.156 66.6 12.1 60 10.7
2011-12-01 09:01:54 51°19.446 2°56.181 65.3 12.2 68 10.6
2011-12-01 09:01:59 51°19.455 2°56.204 67.5 12 61 10.7
2011-12-01 09:02:04 51°19.462 2°56.229 65 12 65 10.6
2011-12-01 09:02:09 51°19.469 2°56.252 66.6 11.9 65 10.7
2011-12-01 09:02:14 51°19.475 2°56.277 67.9 12.2 68 10.7
2011-12-01 09:02:19 51°19.481 2°56.303 69.6 12.3 68 10.7
2011-12-01 09:02:24 51°19.488 2°56.327 70.4 12 68 10.6
2011-12-01 09:02:29 51°19.494 2°56.352 70.1 12.1 68 10.5
2011-12-01 09:02:34 51°19.501 2°56.378 70.4 12.3 65 10.7
2011-12-01 09:02:39 51°19.508 2°56.402 67.7 11.9 65 10.6
2011-12-01 09:02:44 51°19.513 2°56.426 69.8 11.9 70 10.4
2011-12-01 09:02:49 51°19.52 2°56.452 70.8 12.5 67 10.6
2011-12-01 09:02:54 51°19.526 2°56.477 69.2 12.3 67 10.8
2011-12-01 09:02:59 51°19.533 2°56.501 68.2 11.8 66 10.4
2011-12-01 09:03:04 51°19.539 2°56.527 69.8 12.4 68 10.4
2011-12-01 09:03:09 51°19.547 2°56.552 68.8 12.6 64 10.7
2011-12-01 09:03:14 51°19.553 2°56.576 67.1 11.8 70 10.5
2011-12-01 09:03:19 51°19.559 2°56.601 70.5 11.9 67 10.4
2011-12-01 09:03:23 51°19.565 2°56.621 69.8 12.4 68 10.8
2011-12-01 09:03:29 51°19.574 2°56.65 67.8 12.2 64 10.5
2011-12-01 09:03:34 51°19.579 2°56.675 68.3 11.9 67 10.7
2011-12-01 09:03:39 51°19.587 2°56.698 68.1 12 64 10.4
2011-12-01 09:03:44 51°19.593 2°56.724 68.3 12.2 67 10.5
2011-12-01 09:03:49 51°19.602 2°56.748 66.8 12.3 62 10.6
2011-12-01 09:03:54 51°19.608 2°56.772 67 12 68 10.6
2011-12-01 09:03:59 51°19.615 2°56.797 69 12.2 65 10.5
2011-12-01 09:04:04 51°19.621 2°56.822 69.2 12.2 68 10.6
2011-12-01 09:04:09 51°19.628 2°56.846 68.5 11.8 66 10.5
2011-12-01 09:04:14 51°19.633 2°56.871 69 11.9 69 10.3
2011-12-01 09:04:19 51°19.64 2°56.896 70.7 12.4 69 10.6
2011-12-01 09:04:24 51°19.647 2°56.921 70.1 12.1 67 10.4
2011-12-01 09:04:29 51°19.652 2°56.945 70.1 11.7 69 10.4
2011-12-01 09:04:34 51°19.659 2°56.97 70.6 12.2 68 10.3
2011-12-01 09:04:39 51°19.665 2°56.995 69.5 12.3 65 10.6
2011-12-01 09:04:44 51°19.672 2°57.019 66.5 12 66 10.5
2011-12-01 09:04:49 51°19.679 2°57.043 67.9 11.9 65 10.4
2011-12-01 09:04:54 51°19.686 2°57.068 68 12.3 66 10.5
2011-12-01 09:04:59 51°19.694 2°57.092 67.3 12.3 64 10.5
2011-12-01 09:05:04 51°19.701 2°57.116 66.4 11.8 65 10.3
2011-12-01 09:05:09 51°19.706 2°57.141 68.5 12 69 10.3
2011-12-01 09:05:14 51°19.714 2°57.165 70.1 12.3 63 10.5
2011-12-01 09:05:19 51°19.721 2°57.189 65.8 11.7 64 10.5
2011-12-01 09:05:24 51°19.726 2°57.213 68.4 11.8 69 10.1
2011-12-01 09:05:29 51°19.734 2°57.238 69.4 12.5 65 10.7
2011-12-01 09:05:34 51°19.742 2°57.261 65.4 11.6 65 10.5
2011-12-01 09:05:39 51°19.746 2°57.286 67.7 11.5 71 10.2
2011-12-01 09:05:44 51°19.754 2°57.311 70.6 12.5 65 10.4
2011-12-01 09:05:49 51°19.761 2°57.335 66.7 12.2 63 10.6
2011-12-01 09:05:54 51°19.767 2°57.359 65.6 11.4 71 10.2
2011-12-01 09:05:59 51°19.773 2°57.384 71.2 12.2 69 10.2
2011-12-01 09:06:04 51°19.781 2°57.409 68.8 12.6 63 10.6
2011-12-01 09:06:09 51°19.788 2°57.433 65.4 11.8 67 10.3
2011-12-01 09:06:14 51°19.793 2°57.457 69.7 12 66 10.3
2011-12-01 09:06:19 51°19.801 2°57.482 68.9 12.3 64 10.6
2011-12-01 09:06:24 51°19.808 2°57.506 66.4 11.8 65 10.2
2011-12-01 09:06:29 51°19.814 2°57.53 68.3 11.9 67 10.3
2011-12-01 09:06:34 51°19.822 2°57.555 68.6 12.4 64 10.3
2011-12-01 09:06:39 51°19.829 2°57.579 66.6 12.1 65 10.5
2011-12-01 09:06:44 51°19.836 2°57.602 66.5 11.6 66 10.1
2011-12-01 09:06:49 51°19.842 2°57.627 68.2 11.9 66 10.3
2011-12-01 09:06:54 51°19.85 2°57.651 68 12 64 10.4
2011-12-01 09:06:59 51°19.857 2°57.674 65.8 11.7 65 10.2
2011-12-01 09:07:04 51°19.863 2°57.698 67.9 12 66 10.3
2011-12-01 09:07:09 51°19.871 2°57.722 67 12.2 62 10.5
2011-12-01 09:07:14 51°19.878 2°57.746 64.7 11.8 67 10.3
2011-12-01 09:07:19 51°19.885 2°57.769 67.2 11.8 65 10.4
2011-12-01 09:07:24 51°19.892 2°57.793 65.9 12 63 10.4
2011-12-01 09:07:29 51°19.899 2°57.817 65.4 11.9 67 10.3
2011-12-01 09:07:34 51°19.906 2°57.842 67.6 12.3 67 10.2
2011-12-01 09:07:39 51°19.913 2°57.866 68.3 12.2 64 10.4
2011-12-01 09:07:44 51°19.92 2°57.891 67 11.8 68 10.3
2011-12-01 09:07:49 51°19.926 2°57.914 69 11.7 67 10.1
2011-12-01 09:07:54 51°19.932 2°57.939 69.6 12.2 69 10.2
2011-12-01 09:07:59 51°19.939 2°57.965 69.7 12.3 67 10.3
2011-12-01 09:08:04 51°19.945 2°57.989 68.8 12.1 66 10.2
2011-12-01 09:08:09 51°19.952 2°58.013 67.8 11.9 66 10.4
2011-12-01 09:08:14 51°19.959 2°58.037 67.6 11.9 66 10.2
2011-12-01 09:08:19 51°19.965 2°58.061 68 12.1 66 10.2
2011-12-01 09:08:24 51°19.973 2°58.086 68.3 12.2 65 10.3
2011-12-01 09:08:29 51°19.98 2°58.11 67.4 12.1 66 10.4
2011-12-01 09:08:34 51°19.986 2°58.134 67.5 11.8 68 10.2
2011-12-01 09:08:39 51°19.992 2°58.159 69.7 12 70 10.2
2011-12-01 09:08:44 51°19.999 2°58.184 70.5 12.2 65 10.4
2011-12-01 09:08:49 51°20.006 2°58.208 67.2 11.8 66 10.2
2011-12-01 09:08:54 51°20.011 2°58.232 69 11.9 68 10.2
2011-12-01 09:08:59 51°20.019 2°58.256 69 12.2 65 10.1
2011-12-01 09:09:04 51°20.025 2°58.281 68.2 12.1 67 10.4
2011-12-01 09:09:09 51°20.032 2°58.304 67.3 11.7 66 10.1
2011-12-01 09:09:14 51°20.038 2°58.33 69.3 12 70 10.2
2011-12-01 09:09:19 51°20.045 2°58.354 69.8 12.3 65 10.2
2011-12-01 09:09:24 51°20.051 2°58.38 69 12.2 70 10.1
2011-12-01 09:09:29 51°20.058 2°58.404 70.4 12.2 66 10.3
2011-12-01 09:09:34 51°20.064 2°58.428 68.5 11.9 69 9.9
2011-12-01 09:09:39 51°20.07 2°58.453 70.2 12 69 10.2
2011-12-01 09:09:44 51°20.077 2°58.478 69.5 12.1 66 10
2011-12-01 09:09:49 51°20.083 2°58.503 69.5 12.1 68 10.1
2011-12-01 09:09:54 51°20.09 2°58.527 69.4 11.9 66 10.1
2011-12-01 09:09:59 51°20.096 2°58.551 68.1 11.8 68 10
2011-12-01 09:10:04 51°20.103 2°58.575 69 12 66 9.9
2011-12-01 09:10:09 51°20.111 2°58.599 68.2 12.1 63 10.1
2011-12-01 09:10:14 51°20.118 2°58.623 65.7 12 66 10
2011-12-01 09:10:19 51°20.124 2°58.647 67.1 12 65 10.1
2011-12-01 09:10:24 51°20.132 2°58.671 67.1 12.1 64 10.1
2011-12-01 09:10:29 51°20.139 2°58.695 66.5 12 64 10.1
2011-12-01 09:10:34 51°20.146 2°58.719 66.3 12 66 10.1
2011-12-01 09:10:39 51°20.153 2°58.743 67.5 11.9 63 10.1
2011-12-01 09:10:43 51°20.159 2°58.762 66.5 12 66 10
2011-12-01 09:10:49 51°20.168 2°58.791 67 12.1 62 10.1
2011-12-01 09:10:54 51°20.176 2°58.815 64.7 12 66 9.9
2011-12-01 09:10:59 51°20.182 2°58.839 66.9 11.9 65 10.1
2011-12-01 09:11:04 51°20.19 2°58.863 66.4 12 64 10.1
2011-12-01 09:11:09 51°20.197 2°58.886 66 11.8 62 9.9
2011-12-01 09:11:14 51°20.205 2°58.911 65.4 12.3 66 9.8
2011-12-01 09:11:19 51°20.212 2°58.935 67 12.2 65 10.4
2011-12-01 09:11:24 51°20.218 2°58.959 66.7 11.7 67 9.9
2011-12-01 09:11:29 51°20.224 2°58.984 70.4 11.9 68 9.9
2011-12-01 09:11:34 51°20.232 2°59.008 68.8 12.2 64 10
2011-12-01 09:11:39 51°20.238 2°59.033 66.8 12.1 68 10
2011-12-01 09:11:44 51°20.245 2°59.056 68.6 11.8 66 9.8
2011-12-01 09:11:49 51°20.251 2°59.081 69 12.1 69 9.8
2011-12-01 09:11:54 51°20.258 2°59.106 69.1 12.3 64 10.1
2011-12-01 09:11:59 51°20.265 2°59.129 66.2 11.8 65 9.8
2011-12-01 09:12:04 51°20.271 2°59.153 67.9 11.7 68 9.8
2011-12-01 09:12:09 51°20.279 2°59.178 68.8 12.3 65 9.9
2011-12-01 09:12:14 51°20.287 2°59.202 66.5 11.9 62 10
2011-12-01 09:12:19 51°20.293 2°59.225 65.7 11.7 67 9.8
2011-12-01 09:12:23 51°20.298 2°59.245 68.3 12 67 9.8
2011-12-01 09:12:29 51°20.307 2°59.275 68.1 12.3 65 10.1
2011-12-01 09:12:34 51°20.314 2°59.298 66.6 11.7 64 9.9
2011-12-01 09:12:39 51°20.321 2°59.322 66.7 11.8 65 9.8
2011-12-01 09:12:44 51°20.328 2°59.346 67.1 12.1 64 10
2011-12-01 09:12:49 51°20.336 2°59.37 64.3 12.1 64 10
2011-12-01 09:12:54 51°20.342 2°59.394 67 11.8 68 9.9
2011-12-01 09:12:59 51°20.349 2°59.418 69.4 11.9 66 9.9
2011-12-01 09:13:04 51°20.354 2°59.443 69.8 11.9 69 9.9
2011-12-01 09:13:09 51°20.36 2°59.468 70.7 11.9 69 9.9
2011-12-01 09:13:14 51°20.366 2°59.492 71.2 12 69 9.8
2011-12-01 09:13:19 51°20.372 2°59.517 71.2 12 70 9.9
2011-12-01 09:13:24 51°20.377 2°59.543 71.7 12.1 71 9.7
2011-12-01 09:13:29 51°20.383 2°59.568 73.4 12 69 9.9
2011-12-01 09:13:34 51°20.389 2°59.592 71.2 11.7 70 9.6
2011-12-01 09:13:39 51°20.395 2°59.616 71.8 11.8 69 9.8
2011-12-01 09:13:44 51°20.401 2°59.641 70.7 12 70 9.9
2011-12-01 09:13:49 51°20.406 2°59.667 71.9 12.1 72 9.8
2011-12-01 09:13:54 51°20.412 2°59.691 72.4 12 68 10
2011-12-01 09:13:59 51°20.418 2°59.715 70.1 11.6 68 9.7
2011-12-01 09:14:04 51°20.424 2°59.74 71.3 11.9 71 9.8
2011-12-01 09:14:09 51°20.43 2°59.764 71.2 12.1 67 9.9
2011-12-01 09:14:14 51°20.436 2°59.789 69.4 11.8 69 9.7
2011-12-01 09:14:19 51°20.442 2°59.813 70.5 11.7 68 9.7
2011-12-01 09:14:24 51°20.448 2°59.837 69.8 11.8 67 9.7
2011-12-01 09:14:29 51°20.455 2°59.861 69 11.9 65 9.7
2011-12-01 09:14:34 51°20.462 2°59.884 67 11.9 65 9.6
2011-12-01 09:14:39 51°20.469 2°59.908 67.1 11.7 67 9.8
2011-12-01 09:14:44 51°20.476 2°59.932 67.8 11.6 66 9.6
2011-12-01 09:14:49 51°20.482 2°59.957 69.7 12 68 9.6
2011-12-01 09:14:54 51°20.489 2°59.981 69.2 12 65 9.7
2011-12-01 09:14:59 51°20.495 3°0.005 67.1 11.8 66 9.6
2011-12-01 09:15:04 51°20.502 3°0.028 68.1 11.8 66 9.7
2011-12-01 09:15:09 51°20.509 3°0.052 67.7 11.9 65 9.6
2011-12-01 09:15:14 51°20.517 3°0.075 66.2 11.9 62 9.6
2011-12-01 09:15:19 51°20.524 3°0.099 65.4 11.9 65 9.7
2011-12-01 09:15:24 51°20.531 3°0.123 66.1 11.9 63 9.7
2011-12-01 09:15:29 51°20.539 3°0.146 65.1 11.8 61 9.5
2011-12-01 09:15:35 51°20.547 3°0.175 65.3 11.8 65 9.8
2011-12-01 09:15:39 51°20.553 3°0.194 66.1 11.8 66 9.6
2011-12-01 09:15:44 51°20.559 3°0.218 68.6 12 68 9.7
2011-12-01 09:15:49 51°20.567 3°0.242 68.2 12 63 9.7
2011-12-01 09:15:54 51°20.573 3°0.266 66.3 11.7 68 9.7
2011-12-01 09:15:59 51°20.579 3°0.29 69 11.8 67 9.5
2011-12-01 09:16:04 51°20.585 3°0.315 70.1 12.2 68 9.8
2011-12-01 09:16:09 51°20.592 3°0.339 68.6 11.8 64 9.8
2011-12-01 09:16:14 51°20.597 3°0.363 69.3 11.6 71 9.6
2011-12-01 09:16:19 51°20.604 3°0.387 70.8 12.1 65 9.7
2011-12-01 09:16:24 51°20.611 3°0.412 68 12.1 66 10
2011-12-01 09:16:29 51°20.617 3°0.436 67.8 11.7 67 9.7
2011-12-01 09:16:34 51°20.624 3°0.46 69.6 11.9 66 9.8
2011-12-01 09:16:39 51°20.631 3°0.484 68.4 12 65 9.8
2011-12-01 09:16:44 51°20.637 3°0.508 68 11.8 68 9.7
2011-12-01 09:16:49 51°20.642 3°0.533 70 11.7 70 9.6
2011-12-01 09:16:54 51°20.648 3°0.557 71.8 12 68 9.7
2011-12-01 09:16:59 51°20.654 3°0.582 70.5 11.8 68 9.9
2011-12-01 09:17:04 51°20.66 3°0.605 70 11.5 70 9.6
2011-12-01 09:17:09 51°20.666 3°0.63 71.8 11.8 68 9.8
2011-12-01 09:17:14 51°20.673 3°0.654 69.8 12.1 67 9.7
2011-12-01 09:17:19 51°20.68 3°0.678 68.4 11.7 64 9.9
2011-12-01 09:17:24 51°20.686 3°0.7 65.7 11.4 66 9.5
2011-12-01 09:17:29 51°20.693 3°0.725 68 11.8 66 9.6
2011-12-01 09:17:35 51°20.702 3°0.753 66.2 11.9 63 9.8
2011-12-01 09:17:39 51°20.707 3°0.771 65.3 11.5 66 9.6
2011-12-01 09:17:44 51°20.713 3°0.795 68.6 11.6 68 9.6
2011-12-01 09:17:49 51°20.721 3°0.819 68.3 11.8 62 9.6
2011-12-01 09:17:55 51°20.728 3°0.847 66.2 11.6 67 9.7
2011-12-01 09:17:59 51°20.734 3°0.865 67.6 11.5 64 9.6
2011-12-01 09:18:04 51°20.741 3°0.889 67 11.8 66 9.5
2011-12-01 09:18:09 51°20.748 3°0.913 67.4 12.1 64 9.7
2011-12-01 09:18:14 51°20.755 3°0.937 66.2 11.8 65 9.6
2011-12-01 09:18:19 51°20.761 3°0.96 67.6 11.5 69 9.6
2011-12-01 09:18:24 51°20.767 3°0.984 69.6 11.6 67 9.4
2011-12-01 09:18:29 51°20.772 3°1.009 70.3 12 70 9.5
2011-12-01 09:18:34 51°20.779 3°1.034 70.5 12.1 67 9.5
2011-12-01 09:18:39 51°20.785 3°1.058 69.1 11.7 67 9.6
2011-12-01 09:18:44 51°20.791 3°1.082 69 11.6 70 9.4
2011-12-01 09:18:49 51°20.797 3°1.106 71.6 11.8 67 9.6
2011-12-01 09:18:54 51°20.805 3°1.13 68.1 12 65 9.6
2011-12-01 09:18:59 51°20.81 3°1.154 69 11.6 69 9.6
2011-12-01 09:19:04 51°20.816 3°1.178 69.2 11.6 69 9.5
2011-12-01 09:19:09 51°20.822 3°1.202 71.2 11.7 68 9.5
2011-12-01 09:19:14 51°20.829 3°1.226 69.8 11.8 66 9.3
2011-12-01 09:19:19 51°20.835 3°1.25 68.5 11.7 67 9.6
2011-12-01 09:19:23 51°20.841 3°1.269 67.8 11.6 66 9.5
2011-12-01 09:19:29 51°20.848 3°1.297 67.9 11.7 68 9.4
2011-12-01 09:19:34 51°20.854 3°1.322 68.8 11.8 67 9.6
2011-12-01 09:19:39 51°20.861 3°1.345 68.7 11.6 68 9.6
2011-12-01 09:19:44 51°20.866 3°1.37 70.3 11.7 69 9.5
2011-12-01 09:19:49 51°20.873 3°1.393 69.8 11.8 66 9.5
2011-12-01 09:19:54 51°20.879 3°1.417 68.3 11.7 67 9.5
2011-12-01 09:19:59 51°20.886 3°1.441 68.7 11.8 66 9.5
2011-12-01 09:20:04 51°20.892 3°1.466 68.3 11.9 67 9.5
2011-12-01 09:20:09 51°20.899 3°1.49 68.8 11.9 66 9.6
2011-12-01 09:20:14 51°20.905 3°1.513 68.2 11.6 68 9.5
2011-12-01 09:20:19 51°20.911 3°1.537 69.3 11.5 68 9.4
2011-12-01 09:20:24 51°20.917 3°1.562 70.2 11.8 68 9.4
2011-12-01 09:20:29 51°20.924 3°1.585 69.8 11.7 65 9.5
2011-12-01 09:20:34 51°20.93 3°1.609 67.6 11.6 68 9.4
2011-12-01 09:20:39 51°20.936 3°1.633 69.7 11.6 66 9.5
2011-12-01 09:20:44 51°20.943 3°1.656 68 11.5 65 9.7
2011-12-01 09:20:49 51°20.949 3°1.679 67.5 11.4 67 9.2
2011-12-01 09:20:54 51°20.955 3°1.704 69.7 12 66 9.6
2011-12-01 09:20:59 51°20.963 3°1.727 67.4 11.8 64 9.8
2011-12-01 09:21:04 51°20.968 3°1.751 68.4 11.3 71 9.4
2011-12-01 09:21:09 51°20.975 3°1.774 71.2 11.7 66 9.5
2011-12-01 09:21:14 51°20.982 3°1.798 67.3 11.7 64 9.6
2011-12-01 09:21:19 51°20.988 3°1.821 66.2 11.4 65 9.5
2011-12-01 09:21:24 51°20.995 3°1.844 67.5 11.5 65 9.6
2011-12-01 09:21:29 51°21.003 3°1.867 65.8 11.8 63 9.7
2011-12-01 09:21:34 51°21.01 3°1.89 65.1 11.6 63 9.7
2011-12-01 09:21:39 51°21.018 3°1.913 64.6 11.5 62 9.5
2011-12-01 09:21:44 51°21.025 3°1.936 65.4 11.7 63 9.7
2011-12-01 09:21:49 51°21.033 3°1.958 63.3 11.7 60 9.8
2011-12-01 09:21:54 51°21.04 3°1.981 63.9 11.3 64 9.7
2011-12-01 09:21:59 51°21.048 3°2.003 65.4 11.7 62 9.5
2011-12-01 09:22:04 51°21.055 3°2.027 64.3 12 62 10
2011-12-01 09:22:09 51°21.063 3°2.05 62.8 11.6 63 9.8
2011-12-01 09:22:15 51°21.069 3°2.078 68.5 11.6 67 9.8
2011-12-01 09:22:19 51°21.076 3°2.097 69.5 11.9 63 10
2011-12-01 09:22:24 51°21.082 3°2.12 66.4 11.5 65 9.8
2011-12-01 09:22:29 51°21.089 3°2.143 66.7 11.4 65 9.7
2011-12-01 09:22:34 51°21.096 3°2.167 67.6 11.8 67 9.8
2011-12-01 09:22:39 51°21.103 3°2.191 68.2 11.8 65 9.8
2011-12-01 09:22:44 51°21.109 3°2.214 67.2 11.5 66 9.9
2011-12-01 09:22:49 51°21.115 3°2.237 68 11.4 67 9.8
2011-12-01 09:22:54 51°21.121 3°2.262 69.6 11.8 69 9.9
2011-12-01 09:22:59 51°21.127 3°2.286 69.8 11.8 67 10.1
2011-12-01 09:23:04 51°21.133 3°2.31 69.3 11.7 68 9.9
2011-12-01 09:23:09 51°21.139 3°2.334 70.8 11.6 69 10
2011-12-01 09:23:14 51°21.145 3°2.358 71.1 11.7 69 10
2011-12-01 09:23:19 51°21.15 3°2.382 71.2 11.6 69 10.1
2011-12-01 09:23:24 51°21.157 3°2.406 70.6 11.6 69 9.9
2011-12-01 09:23:29 51°21.162 3°2.43 71.6 11.8 70 10.1
2011-12-01 09:23:34 51°21.168 3°2.455 71.8 11.9 70 10.1
2011-12-01 09:23:39 51°21.174 3°2.479 71.9 11.6 69 9.6
2011-12-01 09:23:44 51°21.179 3°2.503 71.7 11.5 71 10.1
2011-12-01 09:23:49 51°21.185 3°2.526 71.4 11.5 67 10.2
2011-12-01 09:23:54 51°21.19 3°2.551 70.6 11.6 70 10.2
2011-12-01 09:23:59 51°21.196 3°2.575 71.6 11.9 68 10.3
2011-12-01 09:24:04 51°21.203 3°2.599 70 11.7 67 10.3
2011-12-01 09:24:09 51°21.209 3°2.622 69 11.4 67 10.1
2011-12-01 09:24:14 51°21.215 3°2.646 69.8 11.6 68 10.1
2011-12-01 09:24:19 51°21.222 3°2.67 69.9 11.7 65 10.1
2011-12-01 09:24:24 51°21.229 3°2.693 67.5 11.6 65 10
2011-12-01 09:24:29 51°21.234 3°2.717 68.3 11.5 70 10.1
2011-12-01 09:24:34 51°21.241 3°2.74 70.5 11.7 65 10.4
2011-12-01 09:24:39 51°21.248 3°2.762 67.2 11.2 64 10.4
2011-12-01 09:24:44 51°21.253 3°2.786 69 11.3 70 10.2
2011-12-01 09:24:49 51°21.261 3°2.81 69.8 11.9 63 10.6
2011-12-01 09:24:54 51°21.268 3°2.833 65.5 11.8 65 10.4
2011-12-01 09:24:59 51°21.274 3°2.856 67.2 11.4 65 10.4
2011-12-01 09:25:04 51°21.282 3°2.879 67.1 11.4 62 10.3
2011-12-01 09:25:09 51°21.288 3°2.901 65.4 11.5 65 10.3
2011-12-01 09:25:14 51°21.295 3°2.925 67 11.7 65 10.3
2011-12-01 09:25:19 51°21.302 3°2.949 67.5 11.9 65 10.4
2011-12-01 09:25:24 51°21.31 3°2.971 65.7 11.5 61 10.4
2011-12-01 09:25:29 51°21.316 3°2.994 65.5 11.3 66 10.3
2011-12-01 09:25:34 51°21.324 3°3.016 67 11.6 61 10.4
2011-12-01 09:25:39 51°21.332 3°3.039 64.9 11.6 62 10.3
2011-12-01 09:25:44 51°21.339 3°3.061 64.6 11.4 62 10.2
2011-12-01 09:25:49 51°21.347 3°3.084 64.3 11.5 62 10.2
2011-12-01 09:25:54 51°21.354 3°3.107 65.3 11.5 62 10.3
2011-12-01 09:25:59 51°21.361 3°3.129 65.3 11.4 63 10.3
2011-12-01 09:26:03 51°21.367 3°3.148 65.9 11.6 63 10.3
2011-12-01 09:26:09 51°21.376 3°3.175 65.1 11.7 61 10.4
2011-12-01 09:26:14 51°21.383 3°3.198 64.8 11.5 64 10.3
2011-12-01 09:26:19 51°21.39 3°3.22 66.1 11.4 63 10.3
2011-12-01 09:26:24 51°21.396 3°3.243 66.9 11.5 66 10.3
2011-12-01 09:26:29 51°21.404 3°3.266 67.5 11.6 63 10.3
2011-12-01 09:26:34 51°21.411 3°3.289 66.5 11.4 65 10.2
2011-12-01 09:26:39 51°21.417 3°3.312 66.9 11.4 65 10.2
2011-12-01 09:26:44 51°21.424 3°3.336 67.4 11.7 66 10.3
2011-12-01 09:26:49 51°21.43 3°3.359 68 11.6 66 10.5
2011-12-01 09:26:54 51°21.436 3°3.383 69.2 11.5 69 10.5
2011-12-01 09:26:59 51°21.442 3°3.407 69.9 11.6 66 10.5
2011-12-01 09:27:04 51°21.448 3°3.43 69.4 11.6 67 10.4
2011-12-01 09:27:09 51°21.454 3°3.454 70 11.5 70 10.5
2011-12-01 09:27:14 51°21.46 3°3.478 71.5 11.5 68 10.3
2011-12-01 09:27:19 51°21.465 3°3.502 71.3 11.7 69 10.4
2011-12-01 09:27:24 51°21.472 3°3.526 70.5 11.7 67 10.5
2011-12-01 09:27:29 51°21.477 3°3.55 70.4 11.5 71 10.6
2011-12-01 09:27:34 51°21.483 3°3.573 71.7 11.4 68 10.5
2011-12-01 09:27:39 51°21.488 3°3.597 72 11.5 70 10.3
2011-12-01 09:27:44 51°21.495 3°3.621 71.5 11.8 66 10.5
2011-12-01 09:27:49 51°21.502 3°3.644 68.3 11.5 66 10.6
2011-12-01 09:27:54 51°21.507 3°3.667 68.5 11.2 69 10.4
2011-12-01 09:27:59 51°21.513 3°3.691 71.1 11.6 68 10.6
2011-12-01 09:28:04 51°21.521 3°3.714 68.8 11.6 62 10.5
2011-12-01 09:28:09 51°21.527 3°3.737 66.3 11.3 67 10.7
2011-12-01 09:28:14 51°21.534 3°3.759 67.6 11.3 65 10.6
2011-12-01 09:28:19 51°21.54 3°3.783 68 11.4 65 10.7
2011-12-01 09:28:24 51°21.548 3°3.805 66.6 11.3 62 10.5
2011-12-01 09:28:29 51°21.554 3°3.827 65.9 11.2 65 10.5
2011-12-01 09:28:34 51°21.561 3°3.85 67.6 11.5 66 10.8
2011-12-01 09:28:39 51°21.567 3°3.874 68 11.4 66 10.5
2011-12-01 09:28:44 51°21.572 3°3.897 69.1 11.3 70 10.7
2011-12-01 09:28:49 51°21.579 3°3.92 70.8 11.5 66 10.7
2011-12-01 09:28:54 51°21.584 3°3.944 69.6 11.5 69 10.7
2011-12-01 09:28:59 51°21.59 3°3.968 70.3 11.4 67 10.6
2011-12-01 09:29:04 51°21.595 3°3.992 70.7 11.6 71 10.7
2011-12-01 09:29:09 51°21.602 3°4.015 71.2 11.7 64 10.7
2011-12-01 09:29:14 51°21.608 3°4.038 68 11.3 67 10.8
2011-12-01 09:29:19 51°21.614 3°4.061 68.6 11.1 68 10.7
2011-12-01 09:29:24 51°21.62 3°4.085 70.5 11.6 69 10.7
2011-12-01 09:29:29 51°21.627 3°4.108 69.5 11.7 64 11
2011-12-01 09:29:34 51°21.634 3°4.131 66.4 11.1 66 10.7
2011-12-01 09:29:39 51°21.639 3°4.154 68.8 11.1 70 10.6
2011-12-01 09:29:44 51°21.646 3°4.177 70.5 11.8 65 10.8
2011-12-01 09:29:49 51°21.653 3°4.201 67.3 11.7 64 11
2011-12-01 09:29:54 51°21.66 3°4.222 65.4 11.1 64 10.7
2011-12-01 09:29:59 51°21.666 3°4.246 66.9 11.3 68 10.6
2011-12-01 09:30:04 51°21.673 3°4.269 69 11.7 65 10.7
2011-12-01 09:30:09 51°21.679 3°4.292 67.3 11.3 65 10.9
2011-12-01 09:30:14 51°21.685 3°4.315 66.8 11.1 68 10.6
2011-12-01 09:30:19 51°21.69 3°4.339 70.6 11.4 70 11
2011-12-01 09:30:24 51°21.696 3°4.362 70.7 11.4 67 10.9
2011-12-01 09:30:29 51°21.702 3°4.385 70.8 11.2 70 10.8
2011-12-01 09:30:34 51°21.708 3°4.408 70.7 11.4 68 10.8
2011-12-01 09:30:39 51°21.713 3°4.432 70.8 11.4 72 10.8
2011-12-01 09:30:44 51°21.718 3°4.456 72.6 11.4 70 10.9
2011-12-01 09:30:49 51°21.723 3°4.479 72.7 11.2 71 10.7
2011-12-01 09:30:55 51°21.728 3°4.509 73.9 11.4 74 10.9
2011-12-01 09:30:59 51°21.733 3°4.528 74.7 11.6 71 10.7
2011-12-01 09:31:04 51°21.737 3°4.552 74.1 11.3 72 11
2011-12-01 09:31:09 51°21.742 3°4.575 73.1 11 71 10.6
2011-12-01 09:31:14 51°21.748 3°4.599 73.9 11.4 69 10.8
2011-12-01 09:31:19 51°21.754 3°4.623 71.5 11.6 68 10.8
2011-12-01 09:31:24 51°21.759 3°4.646 71.8 11.1 71 10.8
2011-12-01 09:31:29 51°21.764 3°4.669 72.5 11.1 71 10.9
2011-12-01 09:31:34 51°21.769 3°4.693 73.4 11.5 70 10.9
2011-12-01 09:31:39 51°21.775 3°4.717 73 11.6 70 10.9
2011-12-01 09:31:44 51°21.78 3°4.741 72.2 11.5 70 10.9
2011-12-01 09:31:49 51°21.786 3°4.765 71.9 11.5 69 10.7
2011-12-01 09:31:54 51°21.792 3°4.789 71.6 11.6 69 10.8
2011-12-01 09:31:59 51°21.797 3°4.813 71.7 11.6 71 10.9
2011-12-01 09:32:04 51°21.803 3°4.836 72.4 11.4 68 10.8
2011-12-01 09:32:09 51°21.808 3°4.861 72.4 11.4 72 10.7
2011-12-01 09:32:14 51°21.814 3°4.885 73.2 11.7 69 11
2011-12-01 09:32:19 51°21.819 3°4.909 71.6 11.4 71 10.9
2011-12-01 09:32:24 51°21.822 3°4.933 75.6 11.4 75 10.9
2011-12-01 09:32:29 51°21.828 3°4.957 75.7 11.5 70 10.9
2011-12-01 09:32:34 51°21.833 3°4.981 73.8 11.3 71 10.9
2011-12-01 09:32:39 51°21.839 3°5.004 73.4 11.4 69 10.8
2011-12-01 09:32:43 51°21.842 3°5.023 72.9 11.4 72 11
2011-12-01 09:32:49 51°21.849 3°5.052 73.2 11.4 70 11
2011-12-01 09:32:54 51°21.853 3°5.075 73.7 11.1 73 10.9
2011-12-01 09:32:59 51°21.858 3°5.099 74.8 11.1 71 10.7
2011-12-01 09:33:04 51°21.862 3°5.123 74.9 11.3 75 10.9
2011-12-01 09:33:09 51°21.867 3°5.147 75.9 11.4 72 11
2011-12-01 09:33:14 51°21.871 3°5.17 75.7 11.1 74 10.9
2011-12-01 09:33:19 51°21.875 3°5.194 76.2 11 74 10.9
2011-12-01 09:33:24 51°21.879 3°5.218 76.9 11.4 75 10.8
2011-12-01 09:33:29 51°21.884 3°5.243 76.8 11.6 71 10.9
2011-12-01 09:33:35 51°21.891 3°5.271 73.9 11 71 10.8
2011-12-01 09:33:39 51°21.894 3°5.288 73.6 10.7 71 10.7
2011-12-01 09:33:44 51°21.899 3°5.312 74.1 11.2 72 10.7
2011-12-01 09:33:49 51°21.905 3°5.336 73.9 11.5 70 10.9
2011-12-01 09:33:54 51°21.91 3°5.359 71.6 10.9 72 10.9
2011-12-01 09:33:59 51°21.914 3°5.382 73.9 10.9 75 10.7
2011-12-01 09:34:04 51°21.92 3°5.406 75.6 11.5 69 10.7
2011-12-01 09:34:09 51°21.926 3°5.43 71.6 11.5 68 11
2011-12-01 09:34:14 51°21.931 3°5.452 71.1 10.9 72 10.8
2011-12-01 09:34:19 51°21.935 3°5.476 74 11 72 10.7
2011-12-01 09:34:24 51°21.941 3°5.499 73.6 11.5 69 10.8
2011-12-01 09:34:29 51°21.946 3°5.523 72.4 11.3 71 11
2011-12-01 09:34:34 51°21.952 3°5.546 73.1 11.1 71 10.7
2011-12-01 09:34:39 51°21.957 3°5.569 73.8 11 70 10.8
2011-12-01 09:34:44 51°21.961 3°5.593 73.5 11.1 72 10.7
2011-12-01 09:34:49 51°21.967 3°5.616 74 11.2 70 10.9
2011-12-01 09:34:54 51°21.972 3°5.639 73.2 11 72 10.8
2011-12-01 09:34:59 51°21.976 3°5.662 74.8 10.9 73 10.8
2011-12-01 09:35:04 51°21.981 3°5.685 75.3 11.1 71 10.7
2011-12-01 09:35:09 51°21.986 3°5.709 74.3 11.2 71 11
2011-12-01 09:35:14 51°21.992 3°5.731 71.8 11 69 10.7
2011-12-01 09:35:19 51°21.996 3°5.755 73.2 11.1 74 10.8
2011-12-01 09:35:24 51°22.003 3°5.778 73.2 11.3 66 10.9
2011-12-01 09:35:29 51°22.007 3°5.801 71.4 11 72 10.7
2011-12-01 09:35:34 51°22.012 3°5.825 73.4 11.2 72 10.8
2011-12-01 09:35:39 51°22.017 3°5.849 74.5 11.3 72 10.9
2011-12-01 09:35:44 51°22.022 3°5.872 74.4 11.1 72 10.7
2011-12-01 09:35:49 51°22.026 3°5.896 75.6 11.3 73 10.8
2011-12-01 09:35:54 51°22.032 3°5.919 74.8 11.1 71 10.9
2011-12-01 09:35:59 51°22.036 3°5.942 73.9 10.9 73 10.7
2011-12-01 09:36:04 51°22.04 3°5.966 75.9 11.1 74 10.7
2011-12-01 09:36:09 51°22.046 3°5.99 75.2 11.3 70 10.8
2011-12-01 09:36:14 51°22.05 3°6.013 73.8 10.9 73 10.8
2011-12-01 09:36:19 51°22.054 3°6.036 75.3 11 75 10.7
2011-12-01 09:36:24 51°22.059 3°6.06 75.8 11.2 72 10.8
2011-12-01 09:36:29 51°22.063 3°6.083 74.5 11 73 10.9
2011-12-01 09:36:34 51°22.068 3°6.106 74.6 10.9 74 10.7
2011-12-01 09:36:39 51°22.072 3°6.129 75.9 11.1 73 10.7
2011-12-01 09:36:44 51°22.076 3°6.153 75.8 11.4 74 10.7
2011-12-01 09:36:49 51°22.081 3°6.177 75.6 11.2 72 10.9
2011-12-01 09:36:54 51°22.086 3°6.2 74.1 11 74 10.7
2011-12-01 09:36:59 51°22.09 3°6.224 75.6 11.1 72 10.6
2011-12-01 09:37:04 51°22.095 3°6.248 74.9 11.4 73 10.8
2011-12-01 09:37:09 51°22.1 3°6.272 74.3 11.2 70 10.7
2011-12-01 09:37:14 51°22.105 3°6.295 73.6 11.1 72 10.8
2011-12-01 09:37:19 51°22.11 3°6.318 73.4 11.1 70 10.8
2011-12-01 09:37:24 51°22.115 3°6.342 72.8 11.3 72 10.7
2011-12-01 09:37:29 51°22.121 3°6.365 73.1 11.2 68 10.9
2011-12-01 09:37:34 51°22.126 3°6.387 71.1 10.8 71 10.8
2011-12-01 09:37:39 51°22.13 3°6.41 72.3 11 73 10.8
2011-12-01 09:37:44 51°22.136 3°6.434 73.7 11.4 69 10.9
2011-12-01 09:37:49 51°22.142 3°6.457 71.6 11.1 67 10.8
2011-12-01 09:37:55 51°22.148 3°6.484 70.5 11 70 10.8
2011-12-01 09:37:59 51°22.153 3°6.503 71.8 11.4 69 10.9
2011-12-01 09:38:04 51°22.159 3°6.526 70.9 11.3 66 11
2011-12-01 09:38:09 51°22.164 3°6.549 69.7 10.9 69 10.8
2011-12-01 09:38:14 51°22.17 3°6.571 71.1 11.1 66 11
2011-12-01 09:38:19 51°22.176 3°6.594 69.9 11.3 70 11.1
2011-12-01 09:38:24 51°22.181 3°6.617 70.9 11 68 11.1
2011-12-01 09:38:29 51°22.186 3°6.64 71.7 10.8 72 11
2011-12-01 09:38:34 51°22.191 3°6.664 74.1 11.3 73 11.2
2011-12-01 09:38:39 51°22.197 3°6.687 73.5 11.2 68 11.2
2011-12-01 09:38:44 51°22.2 3°6.71 73.6 10.9 76 11.3
2011-12-01 09:38:49 51°22.206 3°6.733 74.8 11.1 69 11.2
2011-12-01 09:38:54 51°22.209 3°6.757 74.7 11.2 74 11.4
2011-12-01 09:38:59 51°22.214 3°6.78 74.2 11.1 72 11.4
2011-12-01 09:39:04 51°22.218 3°6.803 74.8 10.8 73 11.3
2011-12-01 09:39:09 51°22.222 3°6.827 75.7 11.2 75 11.6
2011-12-01 09:39:14 51°22.228 3°6.849 73.8 11 67 11.5
2011-12-01 09:39:19 51°22.232 3°6.873 72.7 10.9 75 11.4
2011-12-01 09:39:24 51°22.238 3°6.895 73.9 11 68 11.5
2011-12-01 09:39:29 51°22.243 3°6.918 71.9 11 70 11.6
2011-12-01 09:39:34 51°22.248 3°6.941 71.5 11 70 11.5
2011-12-01 09:39:39 51°22.254 3°6.964 72.8 11.2 69 11.6
2011-12-01 09:39:44 51°22.259 3°6.987 71.2 11.1 68 11.7
2011-12-01 09:39:49 51°22.264 3°7.01 71.2 11 71 11.4
2011-12-01 09:39:54 51°22.269 3°7.034 73.3 11.4 69 11.7
2011-12-01 09:39:59 51°22.275 3°7.057 72.3 11.2 69 11.4
2011-12-01 09:40:04 51°22.279 3°7.08 73.1 11 75 11.5
2011-12-01 09:40:09 51°22.286 3°7.103 73.7 11.1 66 11.4
2011-12-01 09:40:14 51°22.29 3°7.126 71.9 11.1 73 11.5
2011-12-01 09:40:19 51°22.296 3°7.149 72.8 11.1 68 11.4
2011-12-01 09:40:24 51°22.301 3°7.172 73 11 71 11.3